Time;durP1;ratioP1;P1;durP2;ratioP2;P2;SDS_P1;SDS_P2;PMS_P1;PMS_P2;Temp;Humidity;BMP_temperature;BMP_pressure;BME280_temperature;BME280_humidity;BME280_pressure;Samples;Min_cycle;Max_cycle;Signal;HPM_P1;HPM_P2
2022/07/09 00:01:01;;;;;;;4.60;3.17;;;;;;;17.76;59.82;101689.25;4965478;28;20130;-46
2022/07/09 00:03:28;;;;;;;4.13;3.17;;;;;;;17.73;60.28;101691.00;4974940;28;20305;-48
2022/07/09 00:05:55;;;;;;;4.10;3.03;;;;;;;17.70;60.61;101706.72;4982570;28;20049;-47
2022/07/09 00:08:22;;;;;;;4.55;3.38;;;;;;;17.67;60.91;101704.13;4982139;28;20053;-46
2022/07/09 00:10:49;;;;;;;4.10;3.00;;;;;;;17.64;60.81;101700.66;4979213;28;20051;-46
2022/07/09 00:13:15;;;;;;;5.43;3.40;;;;;;;17.63;60.86;101710.25;4982680;28;20054;-47
2022/07/09 00:15:42;;;;;;;5.78;3.45;;;;;;;17.60;60.64;101711.16;4980294;28;20066;-47
2022/07/09 00:18:09;;;;;;;4.30;2.95;;;;;;;17.57;61.36;101710.31;4981187;28;20058;-48
2022/07/09 00:20:36;;;;;;;5.82;3.50;;;;;;;17.56;60.50;101704.19;4980143;28;20051;-50
2022/07/09 00:23:03;;;;;;;4.38;2.90;;;;;;;17.54;60.71;101705.09;4979671;28;20050;-46
2022/07/09 00:25:30;;;;;;;5.55;4.03;;;;;;;17.51;60.70;101705.97;4988322;28;20053;-46
2022/07/09 00:27:56;;;;;;;5.15;3.53;;;;;;;17.47;62.00;101710.34;4982963;28;20054;-48
2022/07/09 00:30:23;;;;;;;3.83;2.95;;;;;;;17.44;61.40;101705.16;4982212;28;20054;-46
2022/07/09 00:32:50;;;;;;;3.97;2.50;;;;;;;17.42;61.78;101701.66;4990176;28;20050;-49
2022/07/09 00:35:16;;;;;;;4.63;3.00;;;;;;;17.39;61.66;101700.81;4983417;28;20046;-47
2022/07/09 00:37:43;;;;;;;4.22;3.22;;;;;;;17.36;61.68;101695.59;4990308;28;20042;-46
2022/07/09 00:40:10;;;;;;;4.07;2.60;;;;;;;17.34;62.32;101698.22;4989783;28;20050;-47
2022/07/09 00:42:37;;;;;;;4.75;3.15;;;;;;;17.32;62.24;101705.19;4986185;28;20129;-46
2022/07/09 00:45:04;;;;;;;4.60;3.15;;;;;;;17.29;62.14;101707.84;4989540;28;20050;-47
2022/07/09 00:47:30;;;;;;;4.10;3.10;;;;;;;17.29;62.65;101705.22;4986911;28;20479;-46
2022/07/09 00:49:57;;;;;;;4.65;3.35;;;;;;;17.25;62.51;101708.72;4977711;28;20059;-45
2022/07/09 00:52:24;;;;;;;4.13;3.35;;;;;;;17.23;62.34;101707.84;4984476;28;20058;-45
2022/07/09 00:54:51;;;;;;;4.93;3.47;;;;;;;17.20;62.34;101701.75;4972717;28;20046;-45
2022/07/09 00:57:19;;;;;;;6.47;2.45;;;;;;;17.19;62.15;101704.38;4979865;28;20437;-48
2022/07/09 00:59:46;;;;;;;6.05;3.53;;;;;;;17.17;62.15;101707.00;4979908;28;20053;-49
2022/07/09 01:02:13;;;;;;;4.82;3.63;;;;;;;17.14;62.15;101701.78;4979680;28;20057;-47
2022/07/09 01:04:40;;;;;;;5.25;3.63;;;;;;;17.12;62.60;101698.28;4966016;28;20137;-46
2022/07/09 01:07:06;;;;;;;6.43;3.65;;;;;;;17.13;62.70;101700.06;4988124;28;20548;-46
2022/07/09 01:09:34;;;;;;;5.68;3.28;;;;;;;17.11;62.33;101696.56;4985344;28;20077;-48
2022/07/09 01:12:01;;;;;;;5.55;3.47;;;;;;;17.08;62.64;101691.31;4982574;28;20046;-49
2022/07/09 01:14:28;;;;;;;5.85;4.03;;;;;;;17.07;62.07;101692.19;4978729;28;20055;-45
2022/07/09 01:17:00;;;;;;;5.43;3.40;;;;;;;17.05;62.57;101693.91;4968123;28;20039;-47
2022/07/09 01:19:27;;;;;;;5.05;3.60;;;;;;;17.04;62.44;101689.56;4978619;28;20782;-48
2022/07/09 01:21:55;;;;;;;5.10;3.00;;;;;;;17.02;62.30;101686.94;4964195;28;20077;-45
2022/07/09 01:24:25;;;;;;;4.07;3.58;;;;;;;17.00;62.38;101680.84;4977960;28;20042;-46
2022/07/09 01:26:53;;;;;;;5.35;2.90;;;;;;;16.99;62.96;101680.88;4983282;28;20116;-45
2022/07/09 01:29:21;;;;;;;4.80;3.65;;;;;;;16.95;62.88;101680.88;4983136;28;20054;-46
2022/07/09 01:31:47;;;;;;;5.30;3.63;;;;;;;16.94;62.43;101679.13;4985555;28;20093;-48
2022/07/09 01:34:14;;;;;;;5.65;2.22;;;;;;;16.92;62.25;101670.41;4982980;28;20439;-47
2022/07/09 01:36:41;;;;;;;4.65;3.40;;;;;;;16.89;63.07;101675.63;4984148;28;20054;-46
2022/07/09 01:39:07;;;;;;;5.70;3.55;;;;;;;16.86;63.21;101670.44;4986244;28;20096;-47
2022/07/09 01:41:34;;;;;;;5.47;3.40;;;;;;;16.85;62.25;101667.81;4981363;28;20054;-45
2022/07/09 01:44:01;;;;;;;6.43;3.50;;;;;;;16.82;62.86;101669.56;4985226;28;20081;-46
2022/07/09 01:46:28;;;;;;;5.35;3.55;;;;;;;16.79;62.44;101671.31;4985130;28;20046;-46
2022/07/09 01:48:54;;;;;;;5.80;4.47;;;;;;;16.76;63.01;101664.38;4970077;28;20097;-45
2022/07/09 01:51:22;;;;;;;6.63;3.63;;;;;;;16.73;63.15;101659.13;4970458;28;20643;-46
2022/07/09 01:53:48;;;;;;;6.18;3.80;;;;;;;16.69;63.47;101660.88;4983426;28;20050;-48
2022/07/09 01:56:15;;;;;;;5.82;3.90;;;;;;;16.68;63.60;101664.38;4982117;28;20050;-45
2022/07/09 01:58:43;;;;;;;7.90;4.85;;;;;;;16.67;63.61;101664.38;4985264;28;20050;-46
2022/07/09 02:01:10;;;;;;;8.35;3.80;;;;;;;16.65;63.18;101661.75;4985009;28;20046;-47
2022/07/09 02:03:37;;;;;;;7.72;4.65;;;;;;;16.62;63.77;101666.97;4984606;28;20213;-49
2022/07/09 02:06:04;;;;;;;6.90;4.07;;;;;;;16.60;64.04;101663.53;4986173;28;20046;-47
2022/07/09 02:08:30;;;;;;;7.97;4.18;;;;;;;16.58;63.68;101660.03;4998226;28;20050;-45
2022/07/09 02:10:58;;;;;;;9.02;4.60;;;;;;;16.56;63.75;101659.16;4983376;28;20051;-49
2022/07/09 02:13:24;;;;;;;9.27;4.82;;;;;;;16.55;64.10;101654.81;4960532;28;20063;-44
2022/07/09 02:15:51;;;;;;;8.93;4.68;;;;;;;16.52;63.93;101650.44;4978635;28;20042;-48
2022/07/09 02:18:18;;;;;;;8.60;5.72;;;;;;;16.53;64.13;101651.31;4985471;28;20054;-46
2022/07/09 02:20:46;;;;;;;7.78;5.32;;;;;;;16.52;64.42;101644.34;4980317;28;20042;-45
2022/07/09 02:23:12;;;;;;;7.18;4.20;;;;;;;16.51;63.72;101647.84;4983163;28;20042;-45
2022/07/09 02:25:39;;;;;;;8.10;4.20;;;;;;;16.50;63.98;101643.47;4984422;28;20050;-46
2022/07/09 02:28:05;;;;;;;11.13;4.63;;;;;;;16.48;64.06;101637.41;4984434;28;20118;-49
2022/07/09 02:30:34;;;;;;;7.63;4.35;;;;;;;16.47;64.00;101635.63;4983706;28;20547;-46
2022/07/09 02:33:00;;;;;;;11.93;4.68;;;;;;;16.45;64.44;101638.28;4979874;28;20055;-47
2022/07/09 02:35:27;;;;;;;10.25;5.10;;;;;;;16.43;64.28;101640.88;4979387;28;20051;-44
2022/07/09 02:37:54;;;;;;;10.95;4.78;;;;;;;16.42;64.14;101643.50;4969306;28;20047;-45
2022/07/09 02:40:20;;;;;;;7.57;4.45;;;;;;;16.41;64.14;101647.84;4966311;28;20097;-51
2022/07/09 02:42:47;;;;;;;7.68;4.88;;;;;;;16.39;64.29;101649.63;4976364;28;20054;-49
2022/07/09 02:45:13;;;;;;;7.65;4.22;;;;;;;16.36;64.13;101644.38;4985548;28;20391;-51
2022/07/09 02:47:40;;;;;;;10.82;5.03;;;;;;;16.33;64.48;101644.38;4982422;28;20054;-45
2022/07/09 02:50:07;;;;;;;9.15;5.03;;;;;;;16.30;64.87;101641.75;4984080;28;20202;-47
2022/07/09 02:52:34;;;;;;;9.88;5.07;;;;;;;16.30;64.87;101644.38;4984202;28;20060;-47
2022/07/09 02:55:01;;;;;;;9.90;5.35;;;;;;;16.28;64.79;101640.91;4965617;28;20554;-49
2022/07/09 02:57:27;;;;;;;7.88;4.88;;;;;;;16.26;64.63;101642.66;4975980;28;20128;-47
2022/07/09 02:59:54;;;;;;;10.80;5.88;;;;;;;16.25;65.00;101635.69;4983568;28;20047;-44
2022/07/09 03:02:21;;;;;;;10.60;4.97;;;;;;;16.23;64.88;101640.03;4980351;28;20054;-44
2022/07/09 03:04:47;;;;;;;9.73;6.13;;;;;;;16.22;65.26;101646.13;4965932;28;20047;-45
2022/07/09 03:07:14;;;;;;;12.85;5.80;;;;;;;16.21;65.18;101647.00;4981508;28;20047;-46
2022/07/09 03:09:41;;;;;;;10.73;5.22;;;;;;;16.21;64.79;101644.41;4980129;28;20053;-45
2022/07/09 03:12:08;;;;;;;10.38;5.75;;;;;;;16.21;64.95;101639.19;4969234;28;20050;-44
2022/07/09 03:14:35;;;;;;;10.50;6.30;;;;;;;16.17;65.69;101633.94;4961496;28;20052;-48
2022/07/09 03:17:01;;;;;;;14.50;6.18;;;;;;;16.17;65.42;101633.94;4962904;28;20050;-47
2022/07/09 03:19:28;;;;;;;14.57;5.75;;;;;;;16.18;65.45;101640.06;4982366;28;20061;-44
2022/07/09 03:21:55;;;;;;;12.18;5.38;;;;;;;16.18;65.58;101646.13;4983590;28;20104;-46
2022/07/09 03:24:22;;;;;;;13.07;6.18;;;;;;;16.17;65.40;101639.16;4981578;28;20098;-47
2022/07/09 03:26:49;;;;;;;9.88;5.38;;;;;;;16.18;65.22;101640.91;4975663;28;20047;-45
2022/07/09 03:29:16;;;;;;;11.45;5.65;;;;;;;16.17;65.43;101639.16;4963238;28;20098;-47
2022/07/09 03:31:42;;;;;;;12.65;6.20;;;;;;;16.14;65.32;101641.78;4982529;28;20047;-47
2022/07/09 03:34:09;;;;;;;12.30;5.55;;;;;;;16.12;65.84;101633.09;4983318;28;20101;-45
2022/07/09 03:36:36;;;;;;;13.93;6.82;;;;;;;16.12;65.83;101640.03;4994009;28;20093;-45
2022/07/09 03:39:02;;;;;;;12.10;5.68;;;;;;;16.10;65.42;101642.66;4982374;28;20058;-47
2022/07/09 03:41:29;;;;;;;12.75;6.10;;;;;;;16.09;66.01;101646.16;4979939;28;20050;-47
2022/07/09 03:43:56;;;;;;;13.57;6.28;;;;;;;16.10;65.92;101642.66;4982628;28;20069;-46
2022/07/09 03:46:23;;;;;;;12.02;5.60;;;;;;;16.10;65.40;101642.66;4982779;28;20457;-46
2022/07/09 03:48:50;;;;;;;10.85;5.70;;;;;;;16.12;65.82;101643.53;4983382;28;20042;-45
2022/07/09 03:51:17;;;;;;;12.95;6.85;;;;;;;16.15;65.78;101640.91;4980355;28;20071;-47
2022/07/09 03:53:43;;;;;;;12.77;6.57;;;;;;;16.18;66.00;101640.91;4974740;28;20046;-45
2022/07/09 03:56:10;;;;;;;11.73;5.70;;;;;;;16.21;66.62;101640.03;4964967;28;20280;-44
2022/07/09 03:58:37;;;;;;;11.68;6.30;;;;;;;16.23;66.33;101637.41;4964881;28;20124;-45
2022/07/09 04:01:04;;;;;;;12.45;5.57;;;;;;;16.24;66.37;101639.19;4977048;28;20399;-45
2022/07/09 04:03:31;;;;;;;15.57;6.38;;;;;;;16.26;66.07;101637.41;4968435;28;20055;-47
2022/07/09 04:05:57;;;;;;;10.88;5.03;;;;;;;16.27;66.77;101644.38;4975080;28;20482;-47
2022/07/09 04:08:24;;;;;;;13.10;6.20;;;;;;;16.29;66.67;101640.03;4984387;28;20113;-45
2022/07/09 04:10:51;;;;;;;12.43;6.47;;;;;;;16.31;66.80;101640.88;4967644;28;20054;-47
2022/07/09 04:13:18;;;;;;;13.88;6.47;;;;;;;16.35;67.25;101640.00;4965085;28;20507;-44
2022/07/09 04:15:45;;;;;;;11.27;5.32;;;;;;;16.37;67.66;101635.66;4980423;28;20054;-45
2022/07/09 04:18:15;;;;;;;12.57;5.57;;;;;;;16.41;67.66;101639.13;4985972;28;20129;-47
2022/07/09 04:20:42;;;;;;;10.85;5.80;;;;;;;16.44;68.18;101632.16;4986135;28;20065;-47
2022/07/09 04:23:09;;;;;;;11.02;5.97;;;;;;;16.47;67.92;101640.84;4985202;28;20055;-44
2022/07/09 04:25:35;;;;;;;10.15;5.75;;;;;;;16.51;68.13;101632.16;4984616;28;20042;-44
2022/07/09 04:28:02;;;;;;;13.40;5.70;;;;;;;16.51;69.02;101632.16;4985232;28;20109;-48
2022/07/09 04:30:29;;;;;;;8.18;4.63;;;;;;;16.52;69.37;101644.34;4988479;28;20046;-45
2022/07/09 04:32:56;;;;;;;11.10;5.57;;;;;;;16.58;69.23;101646.94;4982487;28;20054;-47
2022/07/09 04:35:23;;;;;;;10.48;5.30;;;;;;;16.60;69.51;101637.38;4984957;28;20387;-45
2022/07/09 04:37:49;;;;;;;12.00;5.40;;;;;;;16.63;68.75;101632.13;4984333;28;20050;-48
2022/07/09 04:40:16;;;;;;;11.32;5.68;;;;;;;16.66;69.24;101642.59;4984944;28;20050;-46
2022/07/09 04:42:43;;;;;;;12.75;5.93;;;;;;;16.68;68.99;101651.28;4984197;28;20514;-48
2022/07/09 04:45:10;;;;;;;12.40;5.65;;;;;;;16.72;69.02;101648.66;4987642;28;20046;-46
2022/07/09 04:47:37;;;;;;;11.35;5.75;;;;;;;16.74;68.81;101650.41;4983498;28;20050;-44
2022/07/09 04:50:04;;;;;;;8.85;5.47;;;;;;;16.78;69.14;101646.00;4990214;28;20096;-48
2022/07/09 04:52:31;;;;;;;11.20;5.40;;;;;;;16.80;69.11;101644.28;4984656;28;20058;-45
2022/07/09 04:54:57;;;;;;;10.07;5.40;;;;;;;16.85;68.62;101660.81;4986442;28;20577;-46
2022/07/09 04:57:24;;;;;;;10.63;5.00;;;;;;;16.89;68.96;101662.56;4982409;28;20679;-45
2022/07/09 04:59:51;;;;;;;10.85;5.18;;;;;;;16.92;68.39;101659.94;4988010;28;20116;-45
2022/07/09 05:02:17;;;;;;;11.55;5.20;;;;;;;16.95;68.19;101662.53;4985280;28;20054;-46
2022/07/09 05:04:44;;;;;;;9.55;6.07;;;;;;;16.98;68.43;101658.19;4982379;28;20105;-46
2022/07/09 05:07:11;;;;;;;7.93;4.50;;;;;;;17.00;68.14;101656.41;4965197;28;20050;-48
2022/07/09 05:09:37;;;;;;;9.20;5.22;;;;;;;17.01;68.95;101652.91;4978932;28;20487;-47
2022/07/09 05:12:04;;;;;;;10.02;5.75;;;;;;;17.03;67.98;101661.66;4984392;28;20050;-47
2022/07/09 05:14:31;;;;;;;9.93;5.07;;;;;;;17.04;68.45;101659.03;4986487;28;20150;-45
2022/07/09 05:16:57;;;;;;;12.05;5.25;;;;;;;17.06;67.93;101656.44;4982762;28;20125;-47
2022/07/09 05:19:24;;;;;;;11.30;6.10;;;;;;;17.09;68.41;101656.41;4980903;28;20054;-47
2022/07/09 05:21:51;;;;;;;13.43;6.07;;;;;;;17.12;68.32;101661.63;4982733;28;20213;-50
2022/07/09 05:24:17;;;;;;;9.35;5.10;;;;;;;17.15;68.47;101659.00;4985842;28;20050;-46
2022/07/09 05:26:44;;;;;;;11.15;5.53;;;;;;;17.20;68.09;101659.84;4981906;28;20047;-46
2022/07/09 05:29:11;;;;;;;11.38;5.30;;;;;;;17.25;67.98;101651.97;4983028;28;20110;-45
2022/07/09 05:31:38;;;;;;;11.02;5.15;;;;;;;17.30;68.24;101657.19;4985786;28;20046;-52
2022/07/09 05:34:05;;;;;;;11.55;6.07;;;;;;;17.34;68.10;101662.44;4982355;28;20101;-49
2022/07/09 05:36:32;;;;;;;10.07;5.88;;;;;;;17.38;68.49;101659.75;4980509;28;20049;-47
2022/07/09 05:39:00;;;;;;;8.38;4.97;;;;;;;17.40;67.91;101660.63;4984705;28;20097;-47
2022/07/09 05:41:27;;;;;;;8.20;4.53;;;;;;;17.42;67.91;101662.38;4985262;28;20051;-48
2022/07/09 05:43:54;;;;;;;9.60;5.15;;;;;;;17.43;68.45;101661.47;4987705;28;20058;-51
2022/07/09 05:46:20;;;;;;;10.60;5.65;;;;;;;17.43;68.06;101661.47;4984052;28;20046;-48
2022/07/09 05:48:48;;;;;;;9.82;5.28;;;;;;;17.46;67.77;101655.34;4981772;28;20052;-47
2022/07/09 05:51:14;;;;;;;10.88;5.55;;;;;;;17.51;67.62;101655.34;4983827;28;20054;-47
2022/07/09 05:53:41;;;;;;;9.65;6.00;;;;;;;17.58;67.92;101664.91;4986062;28;20553;-47
2022/07/09 05:56:08;;;;;;;9.23;5.90;;;;;;;17.64;68.45;101664.88;4984916;28;20046;-47
2022/07/09 05:58:34;;;;;;;9.05;3.80;;;;;;;17.71;68.11;101663.97;4985895;28;20450;-48
2022/07/09 06:01:02;;;;;;;10.45;5.32;;;;;;;17.78;68.02;101656.91;4982722;28;20105;-47
2022/07/09 06:03:29;;;;;;;10.38;5.68;;;;;;;17.85;67.90;101662.97;4983399;28;20058;-48
2022/07/09 06:05:56;;;;;;;8.43;5.32;;;;;;;17.91;68.00;101662.94;4978795;28;20492;-46
2022/07/09 06:08:24;;;;;;;10.38;6.38;;;;;;;17.95;68.03;101664.66;4981473;28;20047;-46
2022/07/09 06:10:50;;;;;;;8.80;5.10;;;;;;;18.02;68.15;101661.97;4984688;28;20062;-44
2022/07/09 06:13:18;;;;;;;10.30;5.63;;;;;;;18.07;67.96;101658.41;4983067;28;20046;-46
2022/07/09 06:15:44;;;;;;;9.93;5.68;;;;;;;18.15;67.68;101661.03;4983152;28;20058;-45
2022/07/09 06:18:11;;;;;;;10.38;5.72;;;;;;;18.26;67.28;101662.66;4981058;28;20532;-48
2022/07/09 06:20:38;;;;;;;8.38;5.57;;;;;;;18.34;67.96;101660.88;4982393;28;20042;-48
2022/07/09 06:23:06;;;;;;;9.10;5.50;;;;;;;18.40;68.03;101666.03;4983384;28;20069;-46
2022/07/09 06:25:33;;;;;;;12.13;5.78;;;;;;;18.52;67.64;101658.94;4985268;28;20050;-47
2022/07/09 06:27:59;;;;;;;9.10;5.15;;;;;;;18.59;67.02;101657.97;4981872;28;20465;-52
2022/07/09 06:30:26;;;;;;;10.57;5.75;;;;;;;18.67;67.03;101663.16;4985520;28;20066;-49
2022/07/09 06:32:53;;;;;;;8.98;4.43;;;;;;;18.71;67.11;101660.47;4981750;28;20422;-47
2022/07/09 06:35:20;;;;;;;12.07;5.82;;;;;;;18.77;67.15;101658.69;4982801;28;20047;-52
2022/07/09 06:37:46;;;;;;;10.27;5.97;;;;;;;18.79;67.34;101667.38;4989364;28;20046;-47
2022/07/09 06:40:13;;;;;;;11.45;5.55;;;;;;;18.83;66.49;101674.34;4979451;28;20097;-49
2022/07/09 06:42:40;;;;;;;9.02;5.35;;;;;;;18.86;67.18;101675.19;4973461;28;20092;-51
2022/07/09 06:45:08;;;;;;;7.45;5.03;;;;;;;18.90;66.88;101670.75;4974772;28;20117;-51
2022/07/09 06:47:35;;;;;;;10.10;5.35;;;;;;;18.95;67.02;101674.19;4980906;28;20082;-48
2022/07/09 06:50:09;;;;;;;7.60;5.57;;;;;;;19.01;66.19;101678.50;4984484;28;20050;-47
2022/07/09 06:52:36;;;;;;;9.75;4.95;;;;;;;19.06;66.40;101679.38;4965151;28;20065;-46
2022/07/09 06:55:03;;;;;;;7.68;4.95;;;;;;;19.08;65.84;101674.09;4962213;28;20043;-48
2022/07/09 06:57:30;;;;;;;6.53;4.15;;;;;;;19.10;66.74;101672.31;4975504;28;20046;-49
2022/07/09 06:59:57;;;;;;;8.70;5.90;;;;;;;19.11;65.92;101671.41;4984390;28;20084;-50
2022/07/09 07:02:23;;;;;;;6.93;5.13;;;;;;;19.15;66.65;101675.72;4984538;28;20065;-49
2022/07/09 07:04:50;;;;;;;6.47;4.43;;;;;;;19.22;66.43;101677.41;4983173;28;20050;-48
2022/07/09 07:07:17;;;;;;;5.97;3.95;;;;;;;19.31;66.28;101675.53;4964003;28;20053;-47
2022/07/09 07:09:44;;;;;;;6.70;4.40;;;;;;;19.38;65.43;101677.19;4979971;28;20053;-47
2022/07/09 07:12:11;;;;;;;4.95;2.85;;;;;;;19.46;65.37;101675.34;4982322;28;20650;-50
2022/07/09 07:14:37;;;;;;;6.00;4.10;;;;;;;19.55;65.45;101682.22;4981931;28;20050;-46
2022/07/09 07:17:04;;;;;;;7.40;3.90;;;;;;;19.64;65.08;101678.59;4982312;28;20042;-46
2022/07/09 07:19:31;;;;;;;5.80;3.83;;;;;;;19.69;64.89;101681.16;4987433;28;20100;-48
2022/07/09 07:21:58;;;;;;;5.07;3.63;;;;;;;19.69;64.57;101684.63;4983022;28;20042;-47
2022/07/09 07:24:25;;;;;;;6.68;2.63;;;;;;;19.70;64.56;101694.28;4981906;28;20442;-49
2022/07/09 07:26:51;;;;;;;6.90;4.15;;;;;;;19.76;64.74;101688.91;4975642;28;20051;-49
2022/07/09 07:29:18;;;;;;;5.40;4.05;;;;;;;19.96;64.38;101685.09;4966895;28;20133;-46
2022/07/09 07:31:45;;;;;;;5.70;3.53;;;;;;;20.24;64.81;101684.69;4966641;28;20055;-46
2022/07/09 07:34:12;;;;;;;5.38;3.35;;;;;;;20.55;64.11;101686.78;4978345;28;20051;-47
2022/07/09 07:36:41;;;;;;;4.60;3.10;;;;;;;20.84;63.11;101686.25;4999057;28;20042;-45
2022/07/09 07:39:08;;;;;;;4.40;2.45;;;;;;;21.09;61.83;101680.50;4985937;28;20054;-46
2022/07/09 07:41:34;;;;;;;6.18;2.22;;;;;;;21.16;60.99;101683.00;4991001;28;20494;-47
2022/07/09 07:44:01;;;;;;;4.93;2.60;;;;;;;21.12;60.64;101693.63;4990207;28;20105;-50
2022/07/09 07:46:28;;;;;;;6.03;2.50;;;;;;;21.03;60.01;101690.28;4986811;28;20104;-47
2022/07/09 07:48:55;;;;;;;3.72;2.60;;;;;;;20.92;60.01;101687.00;4983086;28;20152;-51
2022/07/09 07:51:21;;;;;;;3.30;2.38;;;;;;;20.88;60.10;101690.56;4986237;28;20047;-49
2022/07/09 07:53:48;;;;;;;2.50;2.30;;;;;;;20.89;60.01;101687.03;4982181;28;20517;-46
2022/07/09 07:56:15;;;;;;;2.70;2.22;;;;;;;21.02;60.47;101688.56;4983305;28;20039;-47
2022/07/09 07:58:41;;;;;;;3.35;2.13;;;;;;;21.39;60.24;101686.03;4982730;28;20054;-45
2022/07/09 08:01:08;;;;;;;2.45;1.67;;;;;;;21.81;59.85;101693.00;4983117;28;20058;-46
2022/07/09 08:03:35;;;;;;;2.53;2.33;;;;;;;22.09;58.37;101693.19;4983643;28;20050;-47
2022/07/09 08:06:01;;;;;;;2.67;2.42;;;;;;;22.24;58.07;101696.34;4985223;28;20038;-48
2022/07/09 08:08:28;;;;;;;2.72;2.53;;;;;;;22.47;56.82;101686.97;4982075;28;20046;-50
2022/07/09 08:10:55;;;;;;;2.45;1.92;;;;;;;22.71;56.15;101690.75;4986554;28;20043;-45
2022/07/09 08:13:21;;;;;;;2.80;2.60;;;;;;;22.88;55.23;101685.88;4987766;28;20050;-49
2022/07/09 08:15:48;;;;;;;2.83;2.13;;;;;;;23.13;55.48;101685.19;4987633;28;20058;-48
2022/07/09 08:18:15;;;;;;;2.65;1.65;;;;;;;23.39;54.46;101681.78;4975621;28;20129;-48
2022/07/09 08:20:42;;;;;;;2.42;2.22;;;;;;;23.59;53.14;101678.53;4971242;28;20049;-50
2022/07/09 08:23:10;;;;;;;2.08;1.88;;;;;;;23.70;52.10;101674.66;4988358;28;20046;-47
2022/07/09 08:25:37;;;;;;;3.13;2.03;;;;;;;23.90;52.60;101670.47;4986435;28;20046;-50
2022/07/09 08:28:06;;;;;;;1.58;1.48;;;;;;;24.07;51.49;101668.16;4982030;28;20141;-50
2022/07/09 08:30:32;;;;;;;2.25;2.15;;;;;;;24.27;51.57;101653.38;4986970;28;20505;-47
2022/07/09 08:32:59;;;;;;;1.75;1.65;;;;;;;24.48;50.71;101658.81;4985210;28;20414;-51
2022/07/09 08:35:26;;;;;;;1.77;1.60;;;;;;;24.59;49.65;101658.47;4990374;28;20054;-49
2022/07/09 08:37:53;;;;;;;1.50;1.40;;;;;;;24.67;49.83;101661.69;4989822;28;20042;-50
2022/07/09 08:40:21;;;;;;;1.60;1.50;;;;;;;24.91;49.61;101667.03;4983523;28;20116;-52
2022/07/09 08:42:49;;;;;;;1.85;1.10;;;;;;;24.97;48.62;101664.16;4982305;28;20051;-52
2022/07/09 08:45:17;;;;;;;1.55;1.45;;;;;;;24.95;48.46;101662.50;4979658;28;20054;-53
2022/07/09 08:47:43;;;;;;;1.48;1.38;;;;;;;24.83;48.18;101662.00;4989260;28;20104;-43
2022/07/09 08:50:11;;;;;;;1.48;1.38;;;;;;;24.83;48.08;101677.91;4987285;28;20065;-51
2022/07/09 08:52:40;;;;;;;1.73;1.63;;;;;;;24.84;47.47;101674.31;4984371;28;20057;-53
2022/07/09 08:55:09;;;;;;;1.20;1.15;;;;;;;24.76;47.23;101665.78;4968878;28;20047;-55
2022/07/09 08:57:36;;;;;;;1.50;1.40;;;;;;;24.56;47.50;101669.16;4979986;28;20057;-51
2022/07/09 09:00:05;;;;;;;1.77;1.38;;;;;;;24.37;47.79;101670.69;4984279;28;20045;-56
2022/07/09 09:02:36;;;;;;;;;;;;;;;24.21;48.59;101675.66;4984784;28;20050;-51
2022/07/09 09:05:13;;;;;;;0.30;0.20;;;;;;;24.23;48.01;101672.94;4986958;28;21240;-49
2022/07/09 09:07:41;;;;;;;1.08;1.08;;;;;;;24.22;48.39;101673.88;4992729;28;20049;-50
2022/07/09 09:10:08;;;;;;;1.40;1.33;;;;;;;24.43;48.12;101674.03;4986030;28;20042;-54
2022/07/09 09:12:34;;;;;;;1.90;1.80;;;;;;;24.73;47.63;101676.50;4985182;28;20458;-50
2022/07/09 09:15:06;;;;;;;1.58;1.25;;;;;;;24.96;47.07;101669.50;4988572;28;20108;-52
2022/07/09 09:17:32;;;;;;;1.42;0.90;;;;;;;25.04;46.78;101659.47;4985402;28;20104;-53
2022/07/09 09:20:00;;;;;;;1.27;1.17;;;;;;;25.13;47.20;101664.41;4985242;28;20058;-52
2022/07/09 09:22:27;;;;;;;1.52;1.42;;;;;;;25.08;46.34;101666.38;4984090;28;20058;-52
2022/07/09 09:24:54;;;;;;;1.60;1.50;;;;;;;24.95;45.80;101667.78;4988470;28;20058;-52
2022/07/09 09:27:29;;;;;;;1.55;1.45;;;;;;;25.00;45.65;101665.81;4984876;28;20127;-54
2022/07/09 09:29:58;;;;;;;1.77;1.67;;;;;;;25.02;45.62;101672.78;4972811;28;20553;-49
2022/07/09 09:32:24;;;;;;;1.35;1.25;;;;;;;25.13;46.07;101664.41;4973600;28;20049;-51
2022/07/09 09:34:51;;;;;;;2.15;1.30;;;;;;;25.14;45.06;101666.16;4987257;28;20105;-52
2022/07/09 09:37:33;;;;;;;1.75;1.65;;;;;;;25.07;45.34;101675.28;4984633;28;20053;-48
2022/07/09 09:40:08;;;;;;;;;;;;;;;25.18;45.98;101676.63;4984975;28;20081;-50
2022/07/09 09:42:39;;;;;;;2.15;1.38;;;;;;;25.53;45.83;101672.59;4987364;28;19921;-49
2022/07/09 09:45:07;;;;;;;1.27;1.27;;;;;;;25.79;44.67;101667.16;4997895;28;20113;-50
2022/07/09 09:47:36;;;;;;;1.70;1.60;;;;;;;25.73;44.04;101672.75;4981712;28;20047;-50
2022/07/09 09:50:04;;;;;;;1.42;0.47;;;;;;;25.60;43.80;101681.19;4980279;28;20477;-50
2022/07/09 09:52:33;;;;;;;3.38;3.17;;;;;;;25.69;44.27;101673.81;4984469;28;20054;-52
2022/07/09 09:55:01;;;;;;;1.70;1.60;;;;;;;25.91;44.34;101677.25;4986354;28;20499;-49
2022/07/09 09:57:28;;;;;;;1.45;1.35;;;;;;;26.10;43.31;101675.66;4985035;28;20089;-49
2022/07/09 09:59:57;;;;;;;0.32;0.32;;;;;;;25.98;42.63;101688.50;4984089;28;21484;-50
2022/07/09 10:02:25;;;;;;;2.03;1.50;;;;;;;25.71;42.58;101693.16;4982046;28;20054;-49
2022/07/09 10:04:52;;;;;;;4.30;1.67;;;;;;;25.67;42.55;101684.47;4967131;28;20054;-46
2022/07/09 10:07:19;;;;;;;1.55;1.45;;;;;;;25.77;42.59;101685.81;4980155;28;20046;-49
2022/07/09 10:09:55;;;;;;;1.77;0.90;;;;;;;26.02;42.63;101683.91;4976092;28;20051;-50
2022/07/09 10:12:30;;;;;;;;;;;;;;;26.14;42.28;101683.41;4973347;28;20546;-50
2022/07/09 10:14:57;;;;;;;1.55;1.45;;;;;;;26.41;42.53;101680.50;4969652;28;20008;-53
2022/07/09 10:17:25;;;;;;;1.30;1.20;;;;;;;26.52;41.56;101682.72;4983578;28;20493;-48
2022/07/09 10:20:10;;;;;;;1.85;1.08;;;;;;;26.69;41.70;101684.56;4983698;28;20046;-49
2022/07/09 10:22:40;;;;;;;1.42;1.33;;;;;;;26.99;41.47;101690.41;4985022;28;20058;-50
2022/07/09 10:25:08;;;;;;;1.60;1.50;;;;;;;27.27;41.00;101679.34;4990517;28;20070;-49
2022/07/09 10:27:44;;;;;;;2.35;2.25;;;;;;;27.46;40.85;101668.66;4988634;28;20046;-48
2022/07/09 10:30:30;;;;;;;2.30;1.80;;;;;;;27.70;40.30;101676.38;4980294;28;20077;-49
2022/07/09 10:33:21;;;;;;;1.70;1.60;;;;;;;27.81;39.49;101675.00;4981238;28;20097;-53
2022/07/09 10:35:51;;;;;;;0.80;0.80;;;;;;;27.90;39.15;101677.22;4983135;28;20904;-52
2022/07/09 10:38:19;;;;;;;1.70;1.60;;;;;;;28.04;39.13;101686.28;4979147;28;20050;-51
2022/07/09 10:40:48;;;;;;;1.67;1.58;;;;;;;28.12;38.97;101686.75;4979447;28;20116;-52
2022/07/09 10:43:15;;;;;;;1.92;1.50;;;;;;;28.27;39.33;101663.84;4980972;28;20061;-49
2022/07/09 10:45:44;;;;;;;1.42;1.33;;;;;;;28.51;38.73;101667.94;4982615;28;20054;-50
2022/07/09 10:48:14;;;;;;;2.15;1.73;;;;;;;28.46;37.32;101674.38;4968458;28;20061;-54
2022/07/09 10:50:43;;;;;;;1.50;1.35;;;;;;;28.21;36.76;101675.66;4956800;28;20051;-54
2022/07/09 10:53:11;;;;;;;3.25;2.55;;;;;;;28.01;37.24;101678.44;4964399;28;20043;-48
2022/07/09 10:55:42;;;;;;;2.17;1.60;;;;;;;27.99;36.21;101664.38;4986403;28;20054;-49
2022/07/09 10:58:18;;;;;;;1.85;1.75;;;;;;;28.06;37.07;101671.13;4981551;28;20062;-51
2022/07/09 11:00:45;;;;;;;1.98;1.48;;;;;;;28.20;36.96;101673.91;4981097;28;20487;-49
2022/07/09 11:03:11;;;;;;;1.92;1.73;;;;;;;28.28;37.85;101670.00;4983939;28;20542;-51
2022/07/09 11:05:46;;;;;;;4.10;1.67;;;;;;;28.44;37.21;101660.25;4986417;28;20054;-54
2022/07/09 11:08:12;;;;;;;2.83;1.40;;;;;;;28.59;37.71;101668.38;4982373;28;20042;-51
2022/07/09 11:10:40;;;;;;;1.55;1.45;;;;;;;28.56;37.17;101663.22;4986293;28;20049;-50
2022/07/09 11:13:10;;;;;;;1.85;1.75;;;;;;;28.51;37.71;101673.25;4984608;28;20074;-48
2022/07/09 11:15:38;;;;;;;2.08;1.95;;;;;;;28.50;37.01;101668.88;4979354;28;20101;-54
2022/07/09 11:18:08;;;;;;;2.70;1.92;;;;;;;28.51;36.83;101675.94;4979829;28;20043;-51
2022/07/09 11:20:39;;;;;;;2.30;2.10;;;;;;;28.52;36.12;101667.84;4982445;28;20054;-50
2022/07/09 11:23:09;;;;;;;2.90;1.70;;;;;;;28.55;36.39;101673.03;4963677;28;20050;-48
2022/07/09 11:25:37;;;;;;;3.72;2.08;;;;;;;28.66;35.88;101674.22;4982870;28;20104;-49